sensor_id;sensor_type;location;lat;lon;timestamp;P1;durP1;ratioP1;P2;durP2;ratioP2
48627;SDS011;34424;52.234;6.500;2022-10-26T00:02:18;24.08;;;18.48;;
48627;SDS011;34424;52.234;6.500;2022-10-26T00:07:21;24.80;;;20.10;;
48627;SDS011;34424;52.234;6.500;2022-10-26T00:12:24;31.02;;;22.67;;
48627;SDS011;34424;52.234;6.500;2022-10-26T00:17:27;34.72;;;23.02;;
48627;SDS011;34424;52.234;6.500;2022-10-26T00:22:29;31.55;;;23.15;;
48627;SDS011;34424;52.234;6.500;2022-10-26T00:27:33;30.67;;;23.65;;
48627;SDS011;34424;52.234;6.500;2022-10-26T00:32:36;32.03;;;25.40;;
48627;SDS011;34424;52.234;6.500;2022-10-26T00:37:38;41.13;;;25.50;;
48627;SDS011;34424;52.234;6.500;2022-10-26T00:42:42;41.00;;;27.20;;
48627;SDS011;34424;52.234;6.500;2022-10-26T00:47:45;38.78;;;27.30;;
48627;SDS011;34424;52.234;6.500;2022-10-26T00:57:51;41.78;;;28.63;;
48627;SDS011;34424;52.234;6.500;2022-10-26T01:02:54;42.53;;;29.35;;
48627;SDS011;34424;52.234;6.500;2022-10-26T01:07:58;41.15;;;27.83;;
48627;SDS011;34424;52.234;6.500;2022-10-26T01:13:02;39.30;;;28.40;;
48627;SDS011;34424;52.234;6.500;2022-10-26T01:18:06;46.97;;;28.52;;
48627;SDS011;34424;52.234;6.500;2022-10-26T01:23:13;43.17;;;29.00;;
48627;SDS011;34424;52.234;6.500;2022-10-26T01:28:36;44.10;;;30.27;;
48627;SDS011;34424;52.234;6.500;2022-10-26T01:33:44;39.28;;;27.70;;
48627;SDS011;34424;52.234;6.500;2022-10-26T01:38:51;37.83;;;27.85;;
48627;SDS011;34424;52.234;6.500;2022-10-26T01:43:56;35.60;;;27.02;;
48627;SDS011;34424;52.234;6.500;2022-10-26T01:49:02;37.88;;;27.13;;
48627;SDS011;34424;52.234;6.500;2022-10-26T01:54:06;34.92;;;26.35;;
48627;SDS011;34424;52.234;6.500;2022-10-26T01:59:17;35.92;;;24.30;;
48627;SDS011;34424;52.234;6.500;2022-10-26T02:04:26;41.05;;;25.70;;
48627;SDS011;34424;52.234;6.500;2022-10-26T02:09:33;39.10;;;27.35;;
48627;SDS011;34424;52.234;6.500;2022-10-26T02:14:38;32.72;;;25.50;;
48627;SDS011;34424;52.234;6.500;2022-10-26T02:19:46;33.40;;;24.65;;
48627;SDS011;34424;52.234;6.500;2022-10-26T02:24:52;33.15;;;22.92;;
48627;SDS011;34424;52.234;6.500;2022-10-26T02:29:54;34.90;;;23.98;;
48627;SDS011;34424;52.234;6.500;2022-10-26T02:34:59;30.17;;;23.95;;
48627;SDS011;34424;52.234;6.500;2022-10-26T02:40:03;34.63;;;25.42;;
48627;SDS011;34424;52.234;6.500;2022-10-26T02:45:08;38.17;;;24.27;;
48627;SDS011;34424;52.234;6.500;2022-10-26T02:50:13;34.47;;;24.70;;
48627;SDS011;34424;52.234;6.500;2022-10-26T02:55:17;34.08;;;23.95;;
48627;SDS011;34424;52.234;6.500;2022-10-26T03:00:21;31.80;;;24.33;;
48627;SDS011;34424;52.234;6.500;2022-10-26T03:05:26;33.70;;;24.33;;
48627;SDS011;34424;52.234;6.500;2022-10-26T03:10:28;30.88;;;23.02;;
48627;SDS011;34424;52.234;6.500;2022-10-26T03:15:31;30.20;;;22.58;;
48627;SDS011;34424;52.234;6.500;2022-10-26T03:20:35;33.80;;;23.67;;
48627;SDS011;34424;52.234;6.500;2022-10-26T03:25:37;29.75;;;22.23;;
48627;SDS011;34424;52.234;6.500;2022-10-26T03:30:40;33.33;;;24.20;;
48627;SDS011;34424;52.234;6.500;2022-10-26T03:35:43;37.80;;;23.50;;
48627;SDS011;34424;52.234;6.500;2022-10-26T03:40:46;32.97;;;22.17;;
48627;SDS011;34424;52.234;6.500;2022-10-26T03:45:48;30.23;;;21.85;;
48627;SDS011;34424;52.234;6.500;2022-10-26T03:50:54;30.02;;;21.20;;
48627;SDS011;34424;52.234;6.500;2022-10-26T03:55:58;26.33;;;19.70;;
48627;SDS011;34424;52.234;6.500;2022-10-26T04:01:00;23.58;;;19.02;;
48627;SDS011;34424;52.234;6.500;2022-10-26T04:06:04;24.40;;;18.48;;
48627;SDS011;34424;52.234;6.500;2022-10-26T04:11:06;25.63;;;18.42;;
48627;SDS011;34424;52.234;6.500;2022-10-26T04:16:09;25.88;;;19.50;;
48627;SDS011;34424;52.234;6.500;2022-10-26T04:21:13;25.95;;;18.40;;
48627;SDS011;34424;52.234;6.500;2022-10-26T04:26:15;22.05;;;17.65;;
48627;SDS011;34424;52.234;6.500;2022-10-26T04:31:17;26.77;;;18.65;;
48627;SDS011;34424;52.234;6.500;2022-10-26T04:36:21;25.38;;;19.13;;
48627;SDS011;34424;52.234;6.500;2022-10-26T04:41:23;27.70;;;17.60;;
48627;SDS011;34424;52.234;6.500;2022-10-26T04:46:26;26.23;;;17.25;;
48627;SDS011;34424;52.234;6.500;2022-10-26T04:51:29;26.58;;;17.95;;
48627;SDS011;34424;52.234;6.500;2022-10-26T04:56:32;21.65;;;16.05;;
48627;SDS011;34424;52.234;6.500;2022-10-26T05:01:35;22.40;;;16.27;;
48627;SDS011;34424;52.234;6.500;2022-10-26T05:06:39;23.38;;;17.15;;
48627;SDS011;34424;52.234;6.500;2022-10-26T05:11:41;19.80;;;16.77;;
48627;SDS011;34424;52.234;6.500;2022-10-26T05:16:43;23.10;;;16.30;;
48627;SDS011;34424;52.234;6.500;2022-10-26T05:21:47;20.47;;;16.90;;
48627;SDS011;34424;52.234;6.500;2022-10-26T05:26:53;21.67;;;16.33;;
48627;SDS011;34424;52.234;6.500;2022-10-26T05:31:55;21.33;;;16.10;;
48627;SDS011;34424;52.234;6.500;2022-10-26T05:36:59;23.40;;;15.48;;
48627;SDS011;34424;52.234;6.500;2022-10-26T05:42:01;21.02;;;15.27;;
48627;SDS011;34424;52.234;6.500;2022-10-26T05:47:03;25.08;;;15.13;;
48627;SDS011;34424;52.234;6.500;2022-10-26T05:57:11;18.27;;;12.80;;
48627;SDS011;34424;52.234;6.500;2022-10-26T06:02:16;18.02;;;13.45;;
48627;SDS011;34424;52.234;6.500;2022-10-26T06:07:21;20.85;;;14.10;;
48627;SDS011;34424;52.234;6.500;2022-10-26T06:12:25;22.13;;;13.40;;
48627;SDS011;34424;52.234;6.500;2022-10-26T06:17:32;20.38;;;14.15;;
48627;SDS011;34424;52.234;6.500;2022-10-26T06:22:41;24.15;;;12.93;;
48627;SDS011;34424;52.234;6.500;2022-10-26T06:27:47;20.10;;;13.98;;
48627;SDS011;34424;52.234;6.500;2022-10-26T06:32:53;15.38;;;13.00;;
48627;SDS011;34424;52.234;6.500;2022-10-26T06:38:17;22.17;;;14.63;;
48627;SDS011;34424;52.234;6.500;2022-10-26T06:43:23;21.35;;;14.85;;
48627;SDS011;34424;52.234;6.500;2022-10-26T06:48:26;17.02;;;13.68;;
48627;SDS011;34424;52.234;6.500;2022-10-26T06:53:32;22.50;;;14.38;;
48627;SDS011;34424;52.234;6.500;2022-10-26T06:58:37;20.00;;;14.43;;
48627;SDS011;34424;52.234;6.500;2022-10-26T07:03:40;18.95;;;12.93;;
48627;SDS011;34424;52.234;6.500;2022-10-26T07:08:43;18.57;;;12.77;;
48627;SDS011;34424;52.234;6.500;2022-10-26T07:13:47;15.18;;;11.90;;
48627;SDS011;34424;52.234;6.500;2022-10-26T07:18:50;15.63;;;11.10;;
48627;SDS011;34424;52.234;6.500;2022-10-26T07:23:53;15.77;;;9.80;;
48627;SDS011;34424;52.234;6.500;2022-10-26T07:28:58;12.45;;;9.65;;
48627;SDS011;34424;52.234;6.500;2022-10-26T07:34:00;10.27;;;8.23;;
48627;SDS011;34424;52.234;6.500;2022-10-26T07:39:03;15.37;;;7.33;;
48627;SDS011;34424;52.234;6.500;2022-10-26T07:44:07;8.55;;;5.93;;
48627;SDS011;34424;52.234;6.500;2022-10-26T07:49:09;7.38;;;5.15;;
48627;SDS011;34424;52.234;6.500;2022-10-26T07:54:12;5.72;;;5.05;;
48627;SDS011;34424;52.234;6.500;2022-10-26T07:59:15;6.67;;;4.97;;
48627;SDS011;34424;52.234;6.500;2022-10-26T08:04:18;9.15;;;4.75;;
48627;SDS011;34424;52.234;6.500;2022-10-26T08:09:20;8.90;;;4.97;;
48627;SDS011;34424;52.234;6.500;2022-10-26T08:14:24;11.60;;;5.27;;
48627;SDS011;34424;52.234;6.500;2022-10-26T08:19:26;4.78;;;4.28;;
48627;SDS011;34424;52.234;6.500;2022-10-26T08:24:29;5.07;;;3.37;;
48627;SDS011;34424;52.234;6.500;2022-10-26T08:29:33;5.03;;;3.30;;
48627;SDS011;34424;52.234;6.500;2022-10-26T08:34:35;5.03;;;3.15;;
48627;SDS011;34424;52.234;6.500;2022-10-26T08:39:37;4.07;;;3.00;;
48627;SDS011;34424;52.234;6.500;2022-10-26T08:44:43;9.68;;;2.92;;
48627;SDS011;34424;52.234;6.500;2022-10-26T08:49:48;5.47;;;3.65;;
48627;SDS011;34424;52.234;6.500;2022-10-26T08:54:53;6.53;;;2.83;;
48627;SDS011;34424;52.234;6.500;2022-10-26T08:59:59;4.78;;;2.95;;
48627;SDS011;34424;52.234;6.500;2022-10-26T09:05:02;4.05;;;2.90;;
48627;SDS011;34424;52.234;6.500;2022-10-26T09:10:08;5.90;;;2.70;;
48627;SDS011;34424;52.234;6.500;2022-10-26T09:15:17;7.53;;;3.00;;
48627;SDS011;34424;52.234;6.500;2022-10-26T09:20:34;5.00;;;2.67;;
48627;SDS011;34424;52.234;6.500;2022-10-26T09:25:39;3.70;;;2.47;;
48627;SDS011;34424;52.234;6.500;2022-10-26T09:30:43;5.75;;;2.70;;
48627;SDS011;34424;52.234;6.500;2022-10-26T09:35:46;3.33;;;2.72;;
48627;SDS011;34424;52.234;6.500;2022-10-26T09:40:52;4.85;;;2.67;;
48627;SDS011;34424;52.234;6.500;2022-10-26T09:45:58;4.15;;;2.35;;
48627;SDS011;34424;52.234;6.500;2022-10-26T09:51:00;3.90;;;2.67;;
48627;SDS011;34424;52.234;6.500;2022-10-26T09:56:06;5.88;;;2.97;;
48627;SDS011;34424;52.234;6.500;2022-10-26T10:01:20;6.80;;;3.00;;
48627;SDS011;34424;52.234;6.500;2022-10-26T10:06:23;5.22;;;2.70;;
48627;SDS011;34424;52.234;6.500;2022-10-26T10:11:35;6.68;;;2.80;;
48627;SDS011;34424;52.234;6.500;2022-10-26T10:16:39;4.93;;;2.42;;
48627;SDS011;34424;52.234;6.500;2022-10-26T10:21:43;7.65;;;2.88;;
48627;SDS011;34424;52.234;6.500;2022-10-26T10:26:52;3.47;;;2.47;;
48627;SDS011;34424;52.234;6.500;2022-10-26T10:31:58;4.38;;;2.53;;
48627;SDS011;34424;52.234;6.500;2022-10-26T10:37:01;4.35;;;2.60;;
48627;SDS011;34424;52.234;6.500;2022-10-26T10:42:05;4.45;;;2.50;;
48627;SDS011;34424;52.234;6.500;2022-10-26T10:47:19;5.38;;;2.67;;
48627;SDS011;34424;52.234;6.500;2022-10-26T10:52:27;6.55;;;3.40;;
48627;SDS011;34424;52.234;6.500;2022-10-26T10:57:31;6.20;;;2.58;;
48627;SDS011;34424;52.234;6.500;2022-10-26T11:02:56;2.95;;;2.58;;
48627;SDS011;34424;52.234;6.500;2022-10-26T11:08:03;2.90;;;2.40;;
48627;SDS011;34424;52.234;6.500;2022-10-26T11:13:09;4.30;;;2.20;;
48627;SDS011;34424;52.234;6.500;2022-10-26T11:18:18;4.57;;;2.58;;
48627;SDS011;34424;52.234;6.500;2022-10-26T11:23:22;3.47;;;2.10;;
48627;SDS011;34424;52.234;6.500;2022-10-26T11:28:30;4.28;;;2.38;;
48627;SDS011;34424;52.234;6.500;2022-10-26T11:33:35;3.35;;;2.33;;
48627;SDS011;34424;52.234;6.500;2022-10-26T11:38:42;2.90;;;2.47;;
48627;SDS011;34424;52.234;6.500;2022-10-26T11:44:00;6.47;;;3.28;;
48627;SDS011;34424;52.234;6.500;2022-10-26T11:49:09;4.93;;;2.53;;
48627;SDS011;34424;52.234;6.500;2022-10-26T11:54:14;6.05;;;2.90;;
48627;SDS011;34424;52.234;6.500;2022-10-26T11:59:18;6.93;;;3.05;;
48627;SDS011;34424;52.234;6.500;2022-10-26T12:04:24;6.00;;;3.20;;
48627;SDS011;34424;52.234;6.500;2022-10-26T12:09:30;5.78;;;3.42;;
48627;SDS011;34424;52.234;6.500;2022-10-26T12:14:37;7.57;;;4.07;;
48627;SDS011;34424;52.234;6.500;2022-10-26T12:19:44;7.00;;;4.10;;
48627;SDS011;34424;52.234;6.500;2022-10-26T12:25:04;5.82;;;3.80;;
48627;SDS011;34424;52.234;6.500;2022-10-26T12:30:13;4.88;;;3.47;;
48627;SDS011;34424;52.234;6.500;2022-10-26T12:35:34;6.88;;;4.07;;
48627;SDS011;34424;52.234;6.500;2022-10-26T12:40:37;6.30;;;4.18;;
48627;SDS011;34424;52.234;6.500;2022-10-26T12:45:41;6.78;;;3.88;;
48627;SDS011;34424;52.234;6.500;2022-10-26T12:50:45;8.52;;;4.10;;
48627;SDS011;34424;52.234;6.500;2022-10-26T12:56:02;6.45;;;4.10;;
48627;SDS011;34424;52.234;6.500;2022-10-26T13:06:47;5.38;;;3.67;;
48627;SDS011;34424;52.234;6.500;2022-10-26T13:11:53;7.40;;;4.05;;
48627;SDS011;34424;52.234;6.500;2022-10-26T13:16:56;7.57;;;3.88;;
48627;SDS011;34424;52.234;6.500;2022-10-26T13:22:02;6.35;;;4.32;;
48627;SDS011;34424;52.234;6.500;2022-10-26T13:27:21;6.82;;;2.90;;
48627;SDS011;34424;52.234;6.500;2022-10-26T13:32:25;6.30;;;3.08;;
48627;SDS011;34424;52.234;6.500;2022-10-26T13:37:29;5.05;;;3.35;;
48627;SDS011;34424;52.234;6.500;2022-10-26T13:42:32;7.40;;;3.50;;
48627;SDS011;34424;52.234;6.500;2022-10-26T13:47:40;4.70;;;2.97;;
48627;SDS011;34424;52.234;6.500;2022-10-26T13:52:46;5.57;;;3.20;;
48627;SDS011;34424;52.234;6.500;2022-10-26T13:57:54;5.72;;;3.47;;
48627;SDS011;34424;52.234;6.500;2022-10-26T14:03:10;6.20;;;3.25;;
48627;SDS011;34424;52.234;6.500;2022-10-26T14:08:15;4.43;;;3.40;;
48627;SDS011;34424;52.234;6.500;2022-10-26T14:13:19;5.47;;;3.75;;
48627;SDS011;34424;52.234;6.500;2022-10-26T14:18:22;5.95;;;2.92;;
48627;SDS011;34424;52.234;6.500;2022-10-26T14:23:27;5.18;;;3.03;;
48627;SDS011;34424;52.234;6.500;2022-10-26T14:28:31;6.13;;;3.78;;
48627;SDS011;34424;52.234;6.500;2022-10-26T14:33:33;7.45;;;3.67;;
48627;SDS011;34424;52.234;6.500;2022-10-26T14:38:40;5.78;;;4.13;;
48627;SDS011;34424;52.234;6.500;2022-10-26T14:43:43;5.95;;;3.53;;
48627;SDS011;34424;52.234;6.500;2022-10-26T14:48:51;3.40;;;3.10;;
48627;SDS011;34424;52.234;6.500;2022-10-26T14:53:55;4.28;;;3.25;;
48627;SDS011;34424;52.234;6.500;2022-10-26T14:58:58;5.90;;;3.50;;
48627;SDS011;34424;52.234;6.500;2022-10-26T15:04:01;7.00;;;3.92;;
48627;SDS011;34424;52.234;6.500;2022-10-26T15:09:05;5.03;;;4.25;;
48627;SDS011;34424;52.234;6.500;2022-10-26T15:14:10;6.20;;;4.75;;
48627;SDS011;34424;52.234;6.500;2022-10-26T15:19:14;8.98;;;4.38;;
48627;SDS011;34424;52.234;6.500;2022-10-26T15:24:23;5.43;;;3.67;;
48627;SDS011;34424;52.234;6.500;2022-10-26T15:29:32;4.80;;;3.42;;
48627;SDS011;34424;52.234;6.500;2022-10-26T15:34:35;5.35;;;3.63;;
48627;SDS011;34424;52.234;6.500;2022-10-26T15:39:38;8.43;;;4.28;;
48627;SDS011;34424;52.234;6.500;2022-10-26T15:44:41;9.52;;;5.22;;
48627;SDS011;34424;52.234;6.500;2022-10-26T15:49:43;7.43;;;5.18;;
48627;SDS011;34424;52.234;6.500;2022-10-26T15:54:47;6.57;;;5.03;;
48627;SDS011;34424;52.234;6.500;2022-10-26T15:59:49;8.27;;;5.00;;
48627;SDS011;34424;52.234;6.500;2022-10-26T16:04:52;8.32;;;4.88;;
48627;SDS011;34424;52.234;6.500;2022-10-26T16:09:55;13.52;;;9.45;;
48627;SDS011;34424;52.234;6.500;2022-10-26T16:14:58;14.23;;;9.50;;
48627;SDS011;34424;52.234;6.500;2022-10-26T16:20:07;13.98;;;9.70;;
48627;SDS011;34424;52.234;6.500;2022-10-26T16:25:16;12.80;;;8.52;;
48627;SDS011;34424;52.234;6.500;2022-10-26T16:30:19;8.35;;;7.10;;
48627;SDS011;34424;52.234;6.500;2022-10-26T16:35:23;8.25;;;7.28;;
48627;SDS011;34424;52.234;6.500;2022-10-26T16:40:27;9.03;;;6.87;;
48627;SDS011;34424;52.234;6.500;2022-10-26T16:45:30;13.10;;;8.10;;
48627;SDS011;34424;52.234;6.500;2022-10-26T16:50:32;10.47;;;7.67;;
48627;SDS011;34424;52.234;6.500;2022-10-26T16:55:38;10.25;;;8.75;;
48627;SDS011;34424;52.234;6.500;2022-10-26T17:00:40;10.38;;;8.82;;
48627;SDS011;34424;52.234;6.500;2022-10-26T17:05:42;12.97;;;10.07;;
48627;SDS011;34424;52.234;6.500;2022-10-26T17:10:46;18.07;;;13.77;;
48627;SDS011;34424;52.234;6.500;2022-10-26T17:15:48;24.77;;;15.48;;
48627;SDS011;34424;52.234;6.500;2022-10-26T17:20:51;21.43;;;15.07;;
48627;SDS011;34424;52.234;6.500;2022-10-26T17:25:57;13.20;;;11.03;;
48627;SDS011;34424;52.234;6.500;2022-10-26T17:31:02;13.52;;;9.82;;
48627;SDS011;34424;52.234;6.500;2022-10-26T17:41:08;7.80;;;6.95;;
48627;SDS011;34424;52.234;6.500;2022-10-26T17:46:12;11.18;;;7.43;;
48627;SDS011;34424;52.234;6.500;2022-10-26T17:51:16;10.23;;;6.75;;
48627;SDS011;34424;52.234;6.500;2022-10-26T17:56:20;7.35;;;6.63;;
48627;SDS011;34424;52.234;6.500;2022-10-26T18:01:22;7.78;;;6.82;;
48627;SDS011;34424;52.234;6.500;2022-10-26T18:06:25;7.95;;;6.72;;
48627;SDS011;34424;52.234;6.500;2022-10-26T18:11:29;7.90;;;6.23;;
48627;SDS011;34424;52.234;6.500;2022-10-26T18:16:36;9.25;;;6.80;;
48627;SDS011;34424;52.234;6.500;2022-10-26T18:21:39;17.10;;;12.17;;
48627;SDS011;34424;52.234;6.500;2022-10-26T18:26:42;20.90;;;14.23;;
48627;SDS011;34424;52.234;6.500;2022-10-26T18:31:45;17.05;;;10.48;;
48627;SDS011;34424;52.234;6.500;2022-10-26T18:36:47;15.23;;;10.47;;
48627;SDS011;34424;52.234;6.500;2022-10-26T18:41:51;19.43;;;10.07;;
48627;SDS011;34424;52.234;6.500;2022-10-26T18:46:53;12.88;;;8.45;;
48627;SDS011;34424;52.234;6.500;2022-10-26T18:51:56;11.90;;;6.17;;
48627;SDS011;34424;52.234;6.500;2022-10-26T18:57:00;9.13;;;6.47;;
48627;SDS011;34424;52.234;6.500;2022-10-26T19:02:02;8.43;;;6.25;;
48627;SDS011;34424;52.234;6.500;2022-10-26T19:07:10;7.47;;;6.28;;
48627;SDS011;34424;52.234;6.500;2022-10-26T19:12:13;9.70;;;7.07;;
48627;SDS011;34424;52.234;6.500;2022-10-26T19:17:16;9.68;;;6.85;;
48627;SDS011;34424;52.234;6.500;2022-10-26T19:22:18;11.30;;;6.40;;
48627;SDS011;34424;52.234;6.500;2022-10-26T19:27:22;12.20;;;6.13;;
48627;SDS011;34424;52.234;6.500;2022-10-26T19:32:25;8.65;;;6.38;;
48627;SDS011;34424;52.234;6.500;2022-10-26T19:42:31;8.52;;;6.40;;
48627;SDS011;34424;52.234;6.500;2022-10-26T19:47:33;7.70;;;5.25;;
48627;SDS011;34424;52.234;6.500;2022-10-26T19:52:36;10.33;;;6.33;;
48627;SDS011;34424;52.234;6.500;2022-10-26T19:57:39;8.80;;;5.83;;
48627;SDS011;34424;52.234;6.500;2022-10-26T20:02:42;6.85;;;5.88;;
48627;SDS011;34424;52.234;6.500;2022-10-26T20:07:45;11.10;;;6.07;;
48627;SDS011;34424;52.234;6.500;2022-10-26T20:12:48;10.60;;;7.50;;
48627;SDS011;34424;52.234;6.500;2022-10-26T20:17:51;15.52;;;6.88;;
48627;SDS011;34424;52.234;6.500;2022-10-26T20:22:54;9.23;;;6.30;;
48627;SDS011;34424;52.234;6.500;2022-10-26T20:27:58;8.67;;;6.43;;
48627;SDS011;34424;52.234;6.500;2022-10-26T20:33:00;9.30;;;6.15;;
48627;SDS011;34424;52.234;6.500;2022-10-26T20:38:03;12.30;;;6.53;;
48627;SDS011;34424;52.234;6.500;2022-10-26T20:43:08;9.45;;;6.20;;
48627;SDS011;34424;52.234;6.500;2022-10-26T20:48:11;7.65;;;6.30;;
48627;SDS011;34424;52.234;6.500;2022-10-26T20:53:17;11.18;;;6.93;;
48627;SDS011;34424;52.234;6.500;2022-10-26T20:58:22;9.80;;;6.72;;
48627;SDS011;34424;52.234;6.500;2022-10-26T21:03:29;11.48;;;6.43;;
48627;SDS011;34424;52.234;6.500;2022-10-26T21:08:31;10.90;;;7.00;;
48627;SDS011;34424;52.234;6.500;2022-10-26T21:13:35;11.52;;;6.80;;
48627;SDS011;34424;52.234;6.500;2022-10-26T21:18:38;10.60;;;6.82;;
48627;SDS011;34424;52.234;6.500;2022-10-26T21:23:40;10.20;;;6.87;;
48627;SDS011;34424;52.234;6.500;2022-10-26T21:28:44;8.23;;;6.80;;
48627;SDS011;34424;52.234;6.500;2022-10-26T21:33:46;9.93;;;7.00;;
48627;SDS011;34424;52.234;6.500;2022-10-26T21:38:49;14.53;;;6.67;;
48627;SDS011;34424;52.234;6.500;2022-10-26T21:43:53;13.07;;;7.45;;
48627;SDS011;34424;52.234;6.500;2022-10-26T21:49:09;10.30;;;7.30;;
48627;SDS011;34424;52.234;6.500;2022-10-26T21:54:12;11.93;;;7.70;;
48627;SDS011;34424;52.234;6.500;2022-10-26T21:59:16;14.60;;;8.90;;
48627;SDS011;34424;52.234;6.500;2022-10-26T22:04:18;12.70;;;8.18;;
48627;SDS011;34424;52.234;6.500;2022-10-26T22:09:20;12.50;;;8.63;;
48627;SDS011;34424;52.234;6.500;2022-10-26T22:14:24;12.93;;;8.18;;
48627;SDS011;34424;52.234;6.500;2022-10-26T22:19:27;12.80;;;8.63;;
48627;SDS011;34424;52.234;6.500;2022-10-26T22:24:29;16.07;;;8.97;;
48627;SDS011;34424;52.234;6.500;2022-10-26T22:29:33;13.95;;;9.18;;
48627;SDS011;34424;52.234;6.500;2022-10-26T22:34:35;15.27;;;9.07;;
48627;SDS011;34424;52.234;6.500;2022-10-26T22:39:37;15.32;;;9.55;;
48627;SDS011;34424;52.234;6.500;2022-10-26T22:44:41;12.83;;;9.63;;
48627;SDS011;34424;52.234;6.500;2022-10-26T22:49:43;14.32;;;10.02;;
48627;SDS011;34424;52.234;6.500;2022-10-26T22:54:46;15.57;;;10.03;;
48627;SDS011;34424;52.234;6.500;2022-10-26T22:59:49;14.53;;;10.57;;
48627;SDS011;34424;52.234;6.500;2022-10-26T23:04:52;13.10;;;9.98;;
48627;SDS011;34424;52.234;6.500;2022-10-26T23:09:54;17.08;;;10.82;;
48627;SDS011;34424;52.234;6.500;2022-10-26T23:14:58;14.55;;;9.98;;
48627;SDS011;34424;52.234;6.500;2022-10-26T23:20:00;18.67;;;11.13;;
48627;SDS011;34424;52.234;6.500;2022-10-26T23:25:03;16.48;;;10.65;;
48627;SDS011;34424;52.234;6.500;2022-10-26T23:30:07;13.50;;;10.47;;
48627;SDS011;34424;52.234;6.500;2022-10-26T23:35:10;19.23;;;11.15;;
48627;SDS011;34424;52.234;6.500;2022-10-26T23:40:12;15.27;;;11.00;;
48627;SDS011;34424;52.234;6.500;2022-10-26T23:45:16;15.50;;;11.50;;
48627;SDS011;34424;52.234;6.500;2022-10-26T23:50:18;16.85;;;11.77;;
48627;SDS011;34424;52.234;6.500;2022-10-26T23:55:21;18.75;;;11.32;;
